Terminal Aerodrome Forecast
Issued by NWS

Home | Current Version | Previous Version | Text Only | Print | Product List | Glossary On
Versions: 1 2 3 4 5 6 7 8 9 10 11 12 13 14 15 16 17 18 19 20 21 22 23 24 25 26 27 28 29 30
000
FTUS45 KVEF 242045 AAB
TAFLAS
TAF AMD
KLAS 242045Z 2421/2518 VRB05KT P6SM FEW150 SCT250
     FM242200 10005KT P6SM FEW150 SCT250
     FM250400 21005KT P6SM SCT250=

USA.gov is the U.S. government's official web portal to all federal, state and local government web resources and services.